Terminal Aerodrome Forecast
Issued by NWS

Home | Current Version | Previous Version | Text Only | Print | Product List | Glossary On
Versions: 1 2 3 4 5 6 7 8 9 10 11 12 13 14 15 16 17
000
FTUS43 KICT 241134
TAFCNU
TAF
KCNU 241134Z 2412/2512 31017G25KT P6SM FEW250 WS020/33045KT
     FM241400 31022G29KT P6SM FEW250
     FM250000 32013KT P6SM SKC
     FM250100 32007KT P6SM SKC=

USA.gov is the U.S. government's official web portal to all federal, state and local government web resources and services.